Time;durP1;ratioP1;P1;durP2;ratioP2;P2;SDS_P1;SDS_P2;PMS_P1;PMS_P2;Temp;Humidity;BMP_temperature;BMP_pressure;BME280_temperature;BME280_humidity;BME280_pressure;Samples;Min_cycle;Max_cycle;Signal;HPM_P1;HPM_P2
2021/10/24 00:00:53;;;;;;;6.20;5.65;;;;;;;9.27;69.17;102244.44;5014147;28;20029;-42
2021/10/24 00:03:18;;;;;;;6.57;5.60;;;;;;;9.26;69.34;102245.28;5026307;28;20025;-43
2021/10/24 00:05:44;;;;;;;6.00;5.43;;;;;;;9.24;69.47;102242.63;5032006;28;20469;-42
2021/10/24 00:08:09;;;;;;;5.97;5.00;;;;;;;9.24;69.23;102247.91;5031403;28;20067;-43
2021/10/24 00:10:36;;;;;;;5.75;5.18;;;;;;;9.24;69.09;102250.53;5023414;28;20061;-42
2021/10/24 00:13:01;;;;;;;5.75;5.13;;;;;;;9.23;68.86;102259.28;5030689;28;20079;-43
2021/10/24 00:15:26;;;;;;;6.57;5.50;;;;;;;9.24;69.10;102255.81;5031408;28;20033;-43
2021/10/24 00:17:52;;;;;;;5.30;4.65;;;;;;;9.22;69.05;102249.59;5026279;28;20025;-42
2021/10/24 00:20:17;;;;;;;7.18;6.03;;;;;;;9.22;68.95;102250.50;5025458;28;20437;-42
2021/10/24 00:22:42;;;;;;;5.93;5.32;;;;;;;9.22;69.16;102252.22;5015994;28;20029;-43
2021/10/24 00:25:08;;;;;;;7.80;5.45;;;;;;;9.21;69.07;102255.72;5016065;28;20033;-43
2021/10/24 00:27:34;;;;;;;5.88;5.20;;;;;;;9.22;68.79;102260.13;5032687;28;20041;-43
2021/10/24 00:29:59;;;;;;;6.43;5.50;;;;;;;9.20;69.12;102260.09;5031334;28;20021;-42
2021/10/24 00:32:25;;;;;;;6.63;5.20;;;;;;;9.20;68.85;102249.56;5031335;28;20044;-42
2021/10/24 00:34:50;;;;;;;6.93;5.30;;;;;;;9.19;69.08;102246.91;5032429;28;20029;-43
2021/10/24 00:37:15;;;;;;;5.53;4.95;;;;;;;9.18;69.11;102250.38;5032450;28;20029;-43
2021/10/24 00:39:41;;;;;;;6.82;5.25;;;;;;;9.17;69.06;102243.34;5031195;28;20389;-42
2021/10/24 00:42:06;;;;;;;6.18;5.57;;;;;;;9.18;68.99;102245.13;5027097;28;20417;-43
2021/10/24 00:44:33;;;;;;;7.97;5.57;;;;;;;9.16;68.92;102238.91;5020358;28;20512;-42
2021/10/24 00:47:02;;;;;;;5.93;5.07;;;;;;;9.16;69.01;102242.47;5014971;28;20030;-43
2021/10/24 00:49:28;;;;;;;7.35;5.63;;;;;;;9.16;69.03;102241.56;5031635;28;20029;-42
2021/10/24 00:51:54;;;;;;;6.45;5.22;;;;;;;9.15;68.74;102243.31;5019549;28;20034;-42
2021/10/24 00:54:22;;;;;;;6.60;5.50;;;;;;;9.17;68.96;102248.63;5018804;28;20029;-43
2021/10/24 00:56:49;;;;;;;5.80;5.20;;;;;;;9.16;68.87;102238.91;5032274;28;20022;-42
2021/10/24 00:59:15;;;;;;;6.47;5.18;;;;;;;9.15;69.08;102238.06;5023805;28;20456;-46
2021/10/24 01:01:41;;;;;;;6.70;5.30;;;;;;;9.15;68.79;102239.78;5023894;28;20433;-43
2021/10/24 01:04:06;;;;;;;6.85;5.65;;;;;;;9.14;68.93;102238.03;5012586;28;20014;-42
2021/10/24 01:06:32;;;;;;;8.23;4.90;;;;;;;9.14;68.86;102241.53;5025656;28;20033;-43
2021/10/24 01:08:58;;;;;;;6.30;5.45;;;;;;;9.10;68.91;102232.69;5030025;28;20029;-43
2021/10/24 01:11:24;;;;;;;6.93;5.68;;;;;;;9.12;68.99;102230.09;5029452;28;20067;-43
2021/10/24 01:13:50;;;;;;;5.68;5.07;;;;;;;9.11;68.87;102229.19;5013653;28;20355;-42
2021/10/24 01:16:17;;;;;;;5.40;4.82;;;;;;;9.11;68.73;102234.44;5027998;28;20032;-42
2021/10/24 01:18:43;;;;;;;6.40;5.72;;;;;;;9.10;68.79;102227.41;5027439;28;20048;-43
2021/10/24 01:21:09;;;;;;;6.38;5.35;;;;;;;9.09;68.76;102225.66;5026245;28;20022;-44
2021/10/24 01:23:35;;;;;;;5.72;5.13;;;;;;;9.11;68.78;102230.94;5020148;28;20064;-43
2021/10/24 01:26:00;;;;;;;5.93;5.32;;;;;;;9.08;68.83;102229.16;5031403;28;20034;-43
2021/10/24 01:28:26;;;;;;;7.95;5.78;;;;;;;9.08;68.95;102229.16;5021565;28;20022;-43
2021/10/24 01:30:52;;;;;;;6.25;5.65;;;;;;;9.08;68.83;102231.78;5015217;28;20018;-43
2021/10/24 01:33:18;;;;;;;8.38;5.55;;;;;;;9.06;68.83;102225.56;5010744;28;20026;-42
2021/10/24 01:36:08;;;;;;;7.18;5.15;;;;;;;9.08;68.71;102222.97;5025000;28;20113;-42
2021/10/24 01:38:40;;;;;;;6.63;5.47;;;;;;;9.07;68.68;102216.81;5030679;28;20501;-42
2021/10/24 01:41:09;;;;;;;6.25;5.47;;;;;;;9.06;68.73;102208.88;5029925;28;20393;-42
2021/10/24 01:43:35;;;;;;;10.18;7.05;;;;;;;9.05;68.75;102204.47;5031343;28;20083;-44
2021/10/24 01:46:01;;;;;;;7.10;5.90;;;;;;;9.04;68.70;102205.34;5030956;28;20026;-43
2021/10/24 01:48:26;;;;;;;6.90;6.20;;;;;;;9.05;68.58;102213.28;5020577;28;20087;-42
2021/10/24 01:50:52;;;;;;;7.90;5.50;;;;;;;9.04;68.68;102211.47;5015402;28;20030;-42
2021/10/24 01:53:30;;;;;;;7.15;6.45;;;;;;;9.04;68.58;102211.47;5012021;28;20052;-42
2021/10/24 01:55:55;;;;;;;7.10;5.72;;;;;;;9.04;68.61;102206.22;5010742;28;20128;-43
2021/10/24 01:58:21;;;;;;;6.72;6.07;;;;;;;9.03;68.48;102204.44;5034011;28;20104;-42
2021/10/24 02:00:49;;;;;;;6.53;5.90;;;;;;;9.02;68.46;102210.56;5035315;28;20032;-43
2021/10/24 02:03:15;;;;;;;6.13;5.53;;;;;;;9.04;68.45;102205.34;5034684;28;20029;-42
2021/10/24 02:05:41;;;;;;;6.82;6.15;;;;;;;9.02;68.61;102207.94;5034022;28;20097;-43
2021/10/24 02:08:07;;;;;;;6.53;5.90;;;;;;;9.03;68.46;102204.44;5023893;28;20104;-43
2021/10/24 02:10:33;;;;;;;7.30;5.80;;;;;;;8.99;68.65;102197.34;5023071;28;20080;-42
2021/10/24 02:12:59;;;;;;;6.65;5.93;;;;;;;9.01;68.51;102206.16;5019488;28;20030;-42
2021/10/24 02:15:25;;;;;;;6.45;5.85;;;;;;;9.01;68.44;102205.28;5033293;28;20029;-44
2021/10/24 02:17:50;;;;;;;7.28;6.07;;;;;;;9.01;68.16;102214.06;5025719;28;20446;-43
2021/10/24 02:20:16;;;;;;;7.97;6.63;;;;;;;9.00;68.50;102211.41;5034699;28;20436;-43
2021/10/24 02:22:41;;;;;;;7.45;6.75;;;;;;;8.99;68.27;102213.13;5023872;28;20041;-42
2021/10/24 02:25:07;;;;;;;7.78;6.43;;;;;;;8.98;68.27;102201.69;5033323;28;20047;-42
2021/10/24 02:27:33;;;;;;;7.97;6.70;;;;;;;8.98;68.36;102211.38;5024689;28;20029;-43
2021/10/24 02:29:59;;;;;;;6.80;5.60;;;;;;;8.96;68.30;102207.78;5033102;28;20080;-43
2021/10/24 02:32:24;;;;;;;6.82;6.00;;;;;;;8.95;68.50;102212.19;5034937;28;20092;-42
2021/10/24 02:34:49;;;;;;;7.28;6.28;;;;;;;8.96;68.42;102213.97;5020054;28;20057;-42
2021/10/24 02:37:16;;;;;;;7.63;6.32;;;;;;;8.95;68.39;102203.41;5021014;28;20116;-42
2021/10/24 02:39:41;;;;;;;7.13;6.13;;;;;;;8.94;68.21;102204.25;5034961;28;20025;-44
2021/10/24 02:42:06;;;;;;;7.35;6.32;;;;;;;8.94;68.24;102204.25;5022282;28;20113;-42
2021/10/24 02:44:33;;;;;;;7.40;6.13;;;;;;;8.94;68.43;102204.25;5029219;28;20030;-43
2021/10/24 02:46:59;;;;;;;6.70;6.10;;;;;;;8.92;68.50;102200.69;5022885;28;20034;-42
2021/10/24 02:49:26;;;;;;;6.43;5.82;;;;;;;8.92;68.34;102203.31;5021796;28;20039;-42
2021/10/24 02:51:52;;;;;;;6.93;6.22;;;;;;;8.90;68.37;102197.16;5034473;28;20029;-43
2021/10/24 02:54:18;;;;;;;7.10;6.30;;;;;;;8.90;68.28;102197.16;5033957;28;20037;-44
2021/10/24 02:56:43;;;;;;;7.63;6.55;;;;;;;8.90;68.18;102192.75;5033312;28;20025;-44
2021/10/24 02:59:08;;;;;;;8.43;6.22;;;;;;;8.92;68.06;102196.31;5024808;28;20105;-44
2021/10/24 03:01:34;;;;;;;6.75;6.10;;;;;;;8.91;68.18;102186.66;5015323;28;20374;-44
2021/10/24 03:04:00;;;;;;;7.28;6.55;;;;;;;8.90;68.14;102189.25;5015546;28;20087;-44
2021/10/24 03:06:26;;;;;;;7.97;7.18;;;;;;;8.90;67.78;102189.25;5021628;28;20080;-45
2021/10/24 03:08:51;;;;;;;6.38;5.78;;;;;;;8.90;68.03;102190.13;5028188;28;20063;-44
2021/10/24 03:11:17;;;;;;;7.07;6.47;;;;;;;8.89;68.24;102187.44;5033689;28;20017;-44
2021/10/24 03:13:42;;;;;;;6.25;5.75;;;;;;;8.88;67.50;102188.31;5033028;28;20029;-44
2021/10/24 03:16:07;;;;;;;7.00;5.85;;;;;;;8.89;68.11;102185.72;5024759;28;20033;-42
2021/10/24 03:18:32;;;;;;;7.20;6.47;;;;;;;8.89;67.80;102187.44;5025325;28;20060;-43
2021/10/24 03:20:58;;;;;;;7.55;6.75;;;;;;;8.87;68.04;102191.81;5030289;28;20014;-44
2021/10/24 03:23:23;;;;;;;9.27;6.40;;;;;;;8.85;67.84;102192.69;5023643;28;20045;-44
2021/10/24 03:25:49;;;;;;;7.47;6.35;;;;;;;8.85;67.87;102195.31;5032604;28;20059;-44
2021/10/24 03:28:14;;;;;;;6.95;6.25;;;;;;;8.85;67.72;102200.56;5019801;28;20482;-44
2021/10/24 03:30:39;;;;;;;7.13;6.03;;;;;;;8.88;67.89;102204.09;5033616;28;20033;-44
2021/10/24 03:33:05;;;;;;;7.70;6.20;;;;;;;8.87;67.68;102203.19;5028214;28;20053;-44
2021/10/24 03:35:30;;;;;;;6.95;6.13;;;;;;;8.84;67.91;102203.16;5030127;28;20080;-44
2021/10/24 03:37:55;;;;;;;6.95;6.25;;;;;;;8.84;67.96;102203.16;5032146;28;20088;-43
2021/10/24 03:40:22;;;;;;;6.95;6.22;;;;;;;8.84;67.91;102203.16;5022833;28;20025;-43
2021/10/24 03:42:47;;;;;;;7.78;6.05;;;;;;;8.82;68.01;102205.75;5020512;28;20121;-43
2021/10/24 03:45:13;;;;;;;7.95;7.15;;;;;;;8.79;67.86;102210.94;5033035;28;20112;-43
2021/10/24 03:47:39;;;;;;;6.55;5.95;;;;;;;8.81;67.77;102203.94;5032690;28;20025;-43
2021/10/24 03:50:06;;;;;;;7.88;6.25;;;;;;;8.82;67.81;102216.28;5032386;28;20084;-43
2021/10/24 03:52:32;;;;;;;6.93;6.25;;;;;;;8.80;67.68;102210.06;5031725;28;20037;-43
2021/10/24 03:54:57;;;;;;;7.13;6.43;;;;;;;8.78;67.67;102209.16;5030751;28;20710;-43
2021/10/24 03:57:22;;;;;;;6.43;5.82;;;;;;;8.79;67.66;102216.19;5015796;28;20057;-43
2021/10/24 03:59:48;;;;;;;7.25;6.55;;;;;;;8.79;67.63;102205.69;5032434;28;20037;-43
2021/10/24 04:02:13;;;;;;;6.80;6.13;;;;;;;8.79;67.67;102204.78;5026756;28;20060;-43
2021/10/24 04:04:39;;;;;;;7.55;6.85;;;;;;;8.79;67.70;102210.03;5014829;28;20500;-43
2021/10/24 04:07:04;;;;;;;7.88;6.50;;;;;;;8.78;67.79;102203.91;5018600;28;20075;-43
2021/10/24 04:09:30;;;;;;;7.55;6.03;;;;;;;8.78;67.79;102203.91;5033154;28;20415;-43
2021/10/24 04:11:56;;;;;;;6.78;5.95;;;;;;;8.76;67.44;102204.69;5032548;28;20040;-43
2021/10/24 04:14:24;;;;;;;7.03;6.32;;;;;;;8.77;67.75;102217.91;5017398;28;20018;-43
2021/10/24 04:16:49;;;;;;;7.15;5.82;;;;;;;8.73;67.66;102216.03;5018354;28;20025;-43
2021/10/24 04:19:15;;;;;;;7.50;6.80;;;;;;;8.75;67.57;102214.34;5026551;28;20030;-45
2021/10/24 04:21:40;;;;;;;6.93;6.22;;;;;;;8.73;67.69;102210.78;5013169;28;20033;-43
2021/10/24 04:24:05;;;;;;;7.10;6.30;;;;;;;8.73;67.73;102211.69;5024953;28;20421;-43
2021/10/24 04:26:31;;;;;;;6.80;5.95;;;;;;;8.75;67.65;102213.47;5032219;28;20057;-43
2021/10/24 04:28:56;;;;;;;7.43;6.35;;;;;;;8.71;67.71;102210.75;5026125;28;20493;-43
2021/10/24 04:31:21;;;;;;;7.10;6.32;;;;;;;8.72;67.54;102209.00;5032044;28;20064;-43
2021/10/24 04:33:47;;;;;;;6.43;5.78;;;;;;;8.72;67.69;102214.28;5018147;28;20033;-43
2021/10/24 04:36:12;;;;;;;7.32;6.60;;;;;;;8.69;67.57;102215.09;5026944;28;20366;-43
2021/10/24 04:38:37;;;;;;;8.40;6.47;;;;;;;8.72;67.48;102219.53;5034626;28;20026;-42
2021/10/24 04:41:03;;;;;;;7.15;6.47;;;;;;;8.70;67.63;102210.72;5043398;28;20021;-43
2021/10/24 04:43:28;;;;;;;6.63;6.03;;;;;;;8.69;67.42;102215.09;5031977;28;20037;-44
2021/10/24 04:45:55;;;;;;;7.57;6.55;;;;;;;8.69;67.43;102216.84;5029800;28;20025;-44
2021/10/24 04:48:20;;;;;;;7.05;6.35;;;;;;;8.68;67.43;102212.44;5033456;28;20027;-43
2021/10/24 04:50:46;;;;;;;6.32;5.68;;;;;;;8.67;67.49;102211.53;5032320;28;20013;-44
2021/10/24 04:53:11;;;;;;;8.35;6.15;;;;;;;8.68;67.48;102207.16;5034115;28;20049;-43
2021/10/24 04:55:38;;;;;;;7.07;6.32;;;;;;;8.66;67.46;102198.34;5031251;28;20025;-42
2021/10/24 04:58:04;;;;;;;7.80;6.78;;;;;;;8.67;67.55;102200.13;5022918;28;20494;-43
2021/10/24 05:00:30;;;;;;;8.00;6.20;;;;;;;8.66;67.52;102203.59;5039211;28;20039;-43
2021/10/24 05:02:58;;;;;;;6.60;5.78;;;;;;;8.65;67.34;102196.56;5024979;28;20112;-45
2021/10/24 05:05:24;;;;;;;8.77;6.78;;;;;;;8.66;67.33;102203.59;5031364;28;20068;-43
2021/10/24 05:07:50;;;;;;;7.10;6.30;;;;;;;8.64;67.25;102195.66;5026259;28;20084;-43
2021/10/24 05:10:15;;;;;;;6.82;6.13;;;;;;;8.63;67.29;102196.53;5029188;28;20025;-44
2021/10/24 05:12:40;;;;;;;6.38;5.78;;;;;;;8.63;67.25;102188.63;5032247;28;20433;-44
2021/10/24 05:15:06;;;;;;;6.43;5.82;;;;;;;8.62;67.45;102196.50;5034322;28;20052;-43
2021/10/24 05:17:31;;;;;;;6.50;5.82;;;;;;;8.58;67.58;102188.53;5033923;28;20021;-45
2021/10/24 05:19:56;;;;;;;7.22;6.40;;;;;;;8.60;67.49;102194.72;5031511;28;20017;-42
2021/10/24 05:22:23;;;;;;;7.03;6.32;;;;;;;8.60;67.25;102191.19;5042635;28;20025;-42
2021/10/24 05:24:48;;;;;;;7.65;6.93;;;;;;;8.59;67.38;102192.97;5033787;28;20561;-43
2021/10/24 05:27:14;;;;;;;7.43;6.70;;;;;;;8.57;67.43;102185.88;5028058;28;20112;-42
2021/10/24 05:29:39;;;;;;;7.13;6.47;;;;;;;8.56;67.35;102187.63;5034510;28;20153;-43
2021/10/24 05:32:04;;;;;;;8.02;7.05;;;;;;;8.58;67.24;102185.03;5036512;28;20033;-43
2021/10/24 05:34:30;;;;;;;8.18;6.72;;;;;;;8.56;67.39;102186.72;5030472;28;20029;-43
2021/10/24 05:36:55;;;;;;;6.88;6.13;;;;;;;8.54;67.35;102183.19;5024689;28;20031;-43
2021/10/24 05:39:20;;;;;;;7.43;6.15;;;;;;;8.54;67.22;102185.81;5022674;28;20028;-43
2021/10/24 05:41:46;;;;;;;7.22;6.53;;;;;;;8.55;67.51;102184.94;5045157;28;20481;-43
2021/10/24 05:44:12;;;;;;;7.65;6.90;;;;;;;8.54;67.28;102176.16;5041924;28;20496;-43
2021/10/24 05:46:38;;;;;;;7.53;6.80;;;;;;;8.53;67.30;102187.53;5038192;28;20100;-43
2021/10/24 05:49:03;;;;;;;8.18;7.38;;;;;;;8.53;67.25;102187.53;5028121;28;20076;-43
2021/10/24 05:51:29;;;;;;;7.20;6.50;;;;;;;8.52;67.36;102187.47;5030780;28;20029;-43
2021/10/24 05:53:55;;;;;;;8.95;6.50;;;;;;;8.51;67.29;102183.97;5046330;28;20040;-43
2021/10/24 05:56:20;;;;;;;8.35;7.00;;;;;;;8.50;67.51;102187.44;5035391;28;20499;-43
2021/10/24 05:58:46;;;;;;;7.28;6.57;;;;;;;8.50;67.29;102181.28;5026576;28;20021;-44
2021/10/24 06:01:11;;;;;;;9.02;7.20;;;;;;;8.49;67.27;102180.41;5036132;28;20014;-43
2021/10/24 06:03:36;;;;;;;6.88;6.28;;;;;;;8.47;67.19;102196.13;5023505;28;20021;-43
2021/10/24 06:06:02;;;;;;;7.68;6.85;;;;;;;8.48;67.13;102195.28;5021545;28;20084;-43
2021/10/24 06:08:27;;;;;;;7.82;6.40;;;;;;;8.50;67.17;102184.78;5030655;28;20034;-43
2021/10/24 06:10:55;;;;;;;7.32;6.47;;;;;;;8.47;67.31;102184.72;5023337;28;20029;-43
2021/10/24 06:13:21;;;;;;;10.00;7.75;;;;;;;8.47;67.18;102192.59;5025574;28;20028;-43
2021/10/24 06:15:47;;;;;;;8.57;6.85;;;;;;;8.45;67.29;102183.81;5027738;28;20040;-43
2021/10/24 06:18:12;;;;;;;9.98;7.32;;;;;;;8.44;67.21;102192.56;5026140;28;20413;-43
2021/10/24 06:20:38;;;;;;;8.57;7.68;;;;;;;8.43;67.26;102190.75;5019070;28;20088;-43
2021/10/24 06:23:03;;;;;;;7.95;7.15;;;;;;;8.44;67.23;102195.19;5021527;28;20507;-44
2021/10/24 06:25:28;;;;;;;7.22;6.53;;;;;;;8.44;67.14;102203.06;5011072;28;20474;-43
2021/10/24 06:27:54;;;;;;;8.52;7.28;;;;;;;8.43;67.18;102201.28;5027762;28;20132;-43
2021/10/24 06:30:23;;;;;;;6.90;6.28;;;;;;;8.44;67.16;102197.81;5035298;28;20479;-43
2021/10/24 06:32:49;;;;;;;8.10;6.60;;;;;;;8.41;67.18;102198.59;5039382;28;20060;-43
2021/10/24 06:35:15;;;;;;;8.60;7.80;;;;;;;8.42;67.07;102202.13;5032736;28;20044;-44
2021/10/24 06:37:42;;;;;;;8.07;7.30;;;;;;;8.41;67.15;102203.84;5031343;28;20029;-43
2021/10/24 06:40:09;;;;;;;7.78;7.07;;;;;;;8.39;67.02;102202.94;5030536;28;20017;-43
2021/10/24 06:42:35;;;;;;;8.55;7.65;;;;;;;8.40;67.10;102195.97;5042210;28;20044;-43
2021/10/24 06:45:00;;;;;;;7.82;7.03;;;;;;;8.38;67.23;102195.94;5040199;28;20424;-43
2021/10/24 06:47:25;;;;;;;7.75;6.95;;;;;;;8.38;66.98;102200.28;5032861;28;20025;-43
2021/10/24 06:49:51;;;;;;;6.75;6.15;;;;;;;8.35;67.35;102203.72;5037524;28;20075;-43
2021/10/24 06:52:16;;;;;;;8.82;7.28;;;;;;;8.37;66.94;102206.41;5034239;28;20029;-43
2021/10/24 06:54:41;;;;;;;10.40;6.88;;;;;;;8.34;67.09;102202.81;5033547;28;20532;-43
2021/10/24 06:57:07;;;;;;;7.88;7.07;;;;;;;8.34;67.12;102200.19;5043771;28;20502;-43
2021/10/24 06:59:32;;;;;;;7.78;6.75;;;;;;;8.36;67.06;102199.38;5036937;28;20021;-43
2021/10/24 07:01:57;;;;;;;7.20;6.50;;;;;;;8.37;67.10;102206.41;5038958;28;20370;-43
2021/10/24 07:04:23;;;;;;;8.18;7.18;;;;;;;8.35;67.01;102203.72;5042628;28;20053;-43
2021/10/24 07:06:48;;;;;;;7.75;6.80;;;;;;;8.37;67.04;102209.03;5027791;28;20022;-43
2021/10/24 07:09:13;;;;;;;7.78;6.95;;;;;;;8.34;67.05;102208.09;5035361;28;20040;-43
2021/10/24 07:11:39;;;;;;;7.25;6.55;;;;;;;8.33;66.82;102203.69;5014629;28;20435;-43
2021/10/24 07:14:05;;;;;;;9.60;7.45;;;;;;;8.33;67.21;102208.03;5030461;28;20029;-43
2021/10/24 07:16:30;;;;;;;8.00;6.97;;;;;;;8.33;67.06;102205.41;5035853;28;20033;-43
2021/10/24 07:18:56;;;;;;;7.57;6.55;;;;;;;8.31;67.08;102201.88;5034626;28;20036;-43
2021/10/24 07:21:21;;;;;;;8.80;7.25;;;;;;;8.32;67.06;102203.66;5032109;28;20200;-43
2021/10/24 07:23:46;;;;;;;9.52;7.40;;;;;;;8.32;67.41;102212.44;5031835;28;20033;-43
2021/10/24 07:26:12;;;;;;;8.85;7.57;;;;;;;8.32;67.07;102209.81;5020943;28;20049;-43
2021/10/24 07:28:37;;;;;;;8.25;7.38;;;;;;;8.33;67.10;102205.41;5024840;28;20051;-43
2021/10/24 07:31:02;;;;;;;8.82;7.53;;;;;;;8.31;66.96;102210.63;5026824;28;20026;-43
2021/10/24 07:33:28;;;;;;;9.82;8.25;;;;;;;8.31;67.07;102208.00;5043774;28;20029;-43
2021/10/24 07:35:54;;;;;;;9.50;7.72;;;;;;;8.30;67.06;102200.13;5043565;28;20107;-43
2021/10/24 07:38:19;;;;;;;8.32;7.45;;;;;;;8.28;67.22;102202.69;5031430;28;20021;-43
2021/10/24 07:40:46;;;;;;;8.93;8.02;;;;;;;8.28;67.31;102202.69;5033572;28;20030;-43
2021/10/24 07:43:19;;;;;;;8.35;7.38;;;;;;;8.29;66.78;102203.56;5045901;28;20048;-43
2021/10/24 07:45:47;;;;;;;9.57;7.65;;;;;;;8.28;66.98;102197.44;5029168;28;20021;-43
2021/10/24 07:48:12;;;;;;;12.00;8.15;;;;;;;8.28;66.96;102202.69;5027603;28;20021;-43
2021/10/24 07:50:38;;;;;;;8.68;7.85;;;;;;;8.28;67.06;102202.69;5032299;28;20068;-43
2021/10/24 07:53:03;;;;;;;8.85;7.45;;;;;;;8.26;67.35;102204.38;5025057;28;20076;-43
2021/10/24 07:55:28;;;;;;;9.52;7.63;;;;;;;8.27;67.38;102190.38;5038282;28;20029;-43
2021/10/24 07:57:55;;;;;;;9.27;7.75;;;;;;;8.24;67.42;102192.97;5029113;28;20037;-43
2021/10/24 08:00:24;;;;;;;9.93;7.72;;;;;;;8.24;67.48;102194.69;5027257;28;20018;-43
2021/10/24 08:02:50;;;;;;;7.70;6.88;;;;;;;8.24;67.31;102192.97;5028921;28;20029;-43
2021/10/24 08:05:17;;;;;;;10.23;7.65;;;;;;;8.26;67.45;102187.72;5023466;28;20484;-43
2021/10/24 08:07:43;;;;;;;9.30;8.15;;;;;;;8.25;67.37;102186.84;5032725;28;20060;-44
2021/10/24 08:10:10;;;;;;;10.13;7.13;;;;;;;8.23;67.54;102178.00;5029299;28;20021;-43
2021/10/24 08:12:37;;;;;;;9.43;7.60;;;;;;;8.23;67.16;102175.38;5013256;28;20030;-43
2021/10/24 08:15:03;;;;;;;8.05;7.18;;;;;;;8.23;67.52;102170.13;5013017;28;20113;-43
2021/10/24 08:17:28;;;;;;;7.75;6.45;;;;;;;8.21;67.48;102166.59;5012250;28;20509;-43
2021/10/24 08:19:53;;;;;;;7.15;6.45;;;;;;;8.23;67.57;102166.63;5013202;28;20025;-43
2021/10/24 08:22:19;;;;;;;7.63;6.88;;;;;;;8.24;67.38;102164.03;5012096;28;20029;-43
2021/10/24 08:24:45;;;;;;;8.30;7.22;;;;;;;8.24;67.48;102164.03;5026373;28;20033;-43
2021/10/24 08:27:10;;;;;;;9.05;7.50;;;;;;;8.24;67.56;102160.50;5032688;28;20512;-43
2021/10/24 08:29:37;;;;;;;9.05;7.18;;;;;;;8.21;67.68;102159.56;5032475;28;20087;-43
2021/10/24 08:32:05;;;;;;;7.70;6.40;;;;;;;8.21;67.64;102161.34;5027465;28;20029;-43
2021/10/24 08:34:31;;;;;;;8.50;6.75;;;;;;;8.23;67.38;102164.00;5013044;28;20034;-43
2021/10/24 08:36:56;;;;;;;7.60;6.78;;;;;;;8.24;67.57;102150.00;5025569;28;20373;-43
2021/10/24 08:39:21;;;;;;;9.82;7.57;;;;;;;8.25;67.59;102150.03;5023627;28;20021;-43
2021/10/24 08:41:49;;;;;;;7.55;6.70;;;;;;;8.22;67.73;102149.97;5031220;28;20029;-43
2021/10/24 08:44:15;;;;;;;6.93;6.22;;;;;;;8.23;67.57;102153.50;5024964;28;20030;-43
2021/10/24 08:46:40;;;;;;;7.00;6.30;;;;;;;8.23;67.76;102154.34;5013022;28;20544;-43
2021/10/24 08:49:07;;;;;;;7.72;6.65;;;;;;;8.23;67.58;102149.09;5015381;28;20064;-43
2021/10/24 08:51:32;;;;;;;6.95;6.28;;;;;;;8.24;67.60;102156.16;5018111;28;20022;-43
2021/10/24 08:53:59;;;;;;;7.25;5.85;;;;;;;8.22;67.75;102155.22;5031115;28;20030;-43
2021/10/24 08:56:28;;;;;;;7.40;6.47;;;;;;;8.24;67.50;102155.25;5031421;28;20029;-43
2021/10/24 08:58:54;;;;;;;7.55;6.18;;;;;;;8.25;67.71;102150.03;5027247;28;20054;-43
2021/10/24 09:01:20;;;;;;;6.45;5.82;;;;;;;8.25;67.62;102155.31;5016052;28;20045;-44
2021/10/24 09:04:12;;;;;;;7.82;5.90;;;;;;;8.27;67.48;102147.44;5030893;28;20054;-44
2021/10/24 09:06:57;;;;;;;6.28;5.68;;;;;;;8.27;67.52;102150.09;5011741;28;20044;-44
2021/10/24 09:09:31;;;;;;;7.60;6.13;;;;;;;8.26;67.72;102145.66;5028392;28;20045;-43
2021/10/24 09:11:58;;;;;;;7.03;5.72;;;;;;;8.26;67.70;102151.81;5026716;28;20486;-44
2021/10/24 09:14:42;;;;;;;7.10;5.20;;;;;;;8.26;67.61;102151.81;5025114;28;20055;-44
2021/10/24 09:17:30;;;;;;;6.13;5.53;;;;;;;8.27;67.72;102153.59;5016908;28;20154;-43
2021/10/24 09:19:58;;;;;;;6.82;5.93;;;;;;;8.27;67.46;102147.44;5019240;28;20036;-44
2021/10/24 09:22:28;;;;;;;6.13;5.25;;;;;;;8.27;67.67;102145.69;5013065;28;20104;-44
2021/10/24 09:25:12;;;;;;;8.27;5.43;;;;;;;8.28;67.70;102144.88;5031929;28;20791;-44
2021/10/24 09:27:43;;;;;;;6.07;4.80;;;;;;;8.26;67.66;102141.28;5018311;28;20033;-44
2021/10/24 09:30:13;;;;;;;;;;;;;;;8.30;67.65;102135.25;5021566;28;20029;-44
2021/10/24 09:32:55;;;;;;;5.40;4.75;;;;;;;8.28;67.54;102134.34;5030829;28;19964;-43
2021/10/24 09:35:40;;;;;;;7.82;5.00;;;;;;;8.27;67.58;102127.28;5026214;28;20036;-43
2021/10/24 09:38:07;;;;;;;5.45;4.95;;;;;;;8.28;67.89;102128.19;5028925;28;20108;-43
2021/10/24 09:40:40;;;;;;;6.47;4.97;;;;;;;8.28;67.72;102120.31;5031914;28;20026;-43
2021/10/24 09:43:13;;;;;;;5.40;4.90;;;;;;;8.28;67.54;102120.31;5026090;28;20084;-43
2021/10/24 09:45:42;;;;;;;5.65;5.15;;;;;;;8.27;67.64;102119.41;5018499;28;20026;-43
2021/10/24 09:48:12;;;;;;;6.13;4.38;;;;;;;8.30;67.77;102127.38;5030030;28;20408;-43
2021/10/24 09:50:40;;;;;;;6.57;5.03;;;;;;;8.29;67.72;102115.09;5013763;28;20425;-43
2021/10/24 09:53:17;;;;;;;5.03;4.50;;;;;;;8.29;67.79;102120.34;5029780;28;20047;-43
2021/10/24 09:55:52;;;;;;;8.02;4.97;;;;;;;8.29;67.87;102115.09;5031068;28;20048;-43
2021/10/24 09:58:18;;;;;;;5.30;4.45;;;;;;;8.29;67.76;102109.84;5031605;28;20388;-43
2021/10/24 10:00:43;;;;;;;4.95;4.47;;;;;;;8.29;67.75;102104.56;5027635;28;20679;-43
2021/10/24 10:03:09;;;;;;;5.15;4.57;;;;;;;8.30;67.73;102111.59;5014848;28;20448;-43
2021/10/24 10:05:39;;;;;;;5.63;4.65;;;;;;;8.29;67.83;102108.94;5013172;28;20029;-43
2021/10/24 10:08:08;;;;;;;4.90;4.38;;;;;;;8.27;67.91;102097.50;5030721;28;20473;-43
2021/10/24 10:10:37;;;;;;;6.05;4.40;;;;;;;8.28;67.72;102102.81;5011415;28;20037;-43
2021/10/24 10:13:08;;;;;;;5.30;4.30;;;;;;;8.30;67.59;102100.22;5015855;28;20026;-43
2021/10/24 10:15:35;;;;;;;6.13;4.07;;;;;;;8.29;67.75;102093.16;5010019;28;20512;-43
2021/10/24 10:18:02;;;;;;;4.80;4.03;;;;;;;8.28;67.72;102092.28;5031048;28;20029;-43
2021/10/24 10:20:29;;;;;;;4.22;3.83;;;;;;;8.29;67.86;102087.91;5033510;28;20018;-43
2021/10/24 10:23:09;;;;;;;5.53;3.80;;;;;;;8.30;67.89;102092.31;5035151;28;20092;-43
2021/10/24 10:25:37;;;;;;;6.35;4.07;;;;;;;8.29;67.82;102086.19;5034170;28;20471;-43
2021/10/24 10:28:03;;;;;;;6.00;3.55;;;;;;;8.28;67.86;102081.78;5033337;28;20485;-43
2021/10/24 10:30:31;;;;;;;4.00;3.60;;;;;;;8.29;68.11;102080.91;5034379;28;20025;-43
2021/10/24 10:32:56;;;;;;;3.95;3.30;;;;;;;8.29;67.95;102073.03;5033318;28;20032;-43
2021/10/24 10:35:24;;;;;;;4.22;3.40;;;;;;;8.28;67.89;102070.38;5034497;28;20033;-43
2021/10/24 10:38:04;;;;;;;5.82;3.70;;;;;;;8.28;67.88;102060.75;5033934;28;20566;-43
2021/10/24 10:40:40;;;;;;;5.80;3.63;;;;;;;8.27;67.70;102056.31;5014878;28;20029;-43
2021/10/24 10:43:20;;;;;;;4.30;3.55;;;;;;;8.29;67.82;102052.00;5014960;28;20036;-43
2021/10/24 10:45:50;;;;;;;6.60;3.22;;;;;;;8.28;67.94;102050.22;5032225;28;20044;-43
2021/10/24 10:48:38;;;;;;;4.53;4.13;;;;;;;8.30;67.80;102053.75;5015098;28;20117;-42
2021/10/24 10:51:12;;;;;;;5.68;3.50;;;;;;;8.30;67.88;102045.88;5024875;28;20061;-42
2021/10/24 10:53:48;;;;;;;4.65;3.25;;;;;;;8.30;67.95;102040.63;5017516;28;20393;-43
2021/10/24 10:56:15;;;;;;;4.35;3.30;;;;;;;8.31;67.89;102033.63;5026770;28;20029;-43
2021/10/24 10:59:00;;;;;;;4.20;3.72;;;;;;;8.30;68.00;102040.63;5041758;23;20049;-43
2021/10/24 11:01:38;;;;;;;4.70;3.10;;;;;;;8.30;68.32;102032.75;5047650;28;20021;-43
2021/10/24 11:04:07;;;;;;;4.00;3.17;;;;;;;8.30;68.01;102030.09;5042832;28;20041;-43
2021/10/24 11:06:37;;;;;;;6.32;3.63;;;;;;;8.29;68.01;102015.19;5042982;28;20040;-43
2021/10/24 11:09:04;;;;;;;5.00;3.83;;;;;;;8.30;68.18;102022.22;5033604;28;20039;-43
2021/10/24 11:11:40;;;;;;;5.07;3.40;;;;;;;8.30;67.98;102011.72;5034456;28;20037;-43
2021/10/24 11:14:34;;;;;;;3.38;3.05;;;;;;;8.31;68.03;102009.97;5033049;28;20025;-43
2021/10/24 11:17:00;;;;;;;5.40;3.35;;;;;;;8.32;67.98;102004.75;5028114;28;20393;-42
2021/10/24 11:19:58;;;;;;;4.88;3.55;;;;;;;8.33;68.32;102009.16;5050963;28;20036;-43
2021/10/24 11:22:18;;;;;;;5.18;3.58;;;;;;;8.32;67.77;101999.50;5026376;28;20032;-44
2021/10/24 11:24:52;;;;;;;4.88;3.40;;;;;;;8.33;67.83;101993.38;5028199;28;20028;-44
2021/10/24 11:27:26;;;;;;;5.45;3.20;;;;;;;8.34;67.78;101994.28;5023019;28;20029;-44
2021/10/24 11:29:53;;;;;;;4.97;3.60;;;;;;;8.34;67.93;101981.13;5018314;28;20038;-44
2021/10/24 11:32:28;;;;;;;4.65;3.80;;;;;;;8.37;67.85;101985.56;5027476;28;20017;-44
2021/10/24 11:34:54;;;;;;;4.18;3.22;;;;;;;8.36;68.03;101983.78;5024756;28;20125;-44